Time;durP1;ratioP1;P1;durP2;ratioP2;P2;SDS_P1;SDS_P2;PMS_P1;PMS_P2;Temp;Humidity;BMP_temperature;BMP_pressure;BME280_temperature;BME280_humidity;BME280_pressure;Samples;Min_cycle;Max_cycle;Signal;HPM_P1;HPM_P2
2023/12/04 00:01:33;;;;;;;18.63;11.98;;;;;;;-0.22;66.24;100866.34;4129008;28;20034;-64
2023/12/04 00:03:36;;;;;;;18.70;11.75;;;;;;;-0.25;66.44;100861.97;4126261;28;20038;-64
2023/12/04 00:05:45;;;;;;;18.55;12.68;;;;;;;-0.28;66.38;100866.84;4126521;28;20503;-64
2023/12/04 00:07:47;;;;;;;18.88;12.27;;;;;;;-0.24;66.47;100862.81;4128049;28;20394;-65
2023/12/04 00:09:50;;;;;;;18.30;12.07;;;;;;;-0.24;65.85;100857.72;4130359;28;20039;-66
2023/12/04 00:11:53;;;;;;;17.92;12.55;;;;;;;-0.26;66.29;100861.84;4128206;28;20038;-66
2023/12/04 00:13:55;;;;;;;19.75;12.18;;;;;;;-0.29;65.72;100859.97;4128645;28;20038;-66
2023/12/04 00:15:58;;;;;;;18.02;11.50;;;;;;;-0.39;66.16;100853.38;4125158;28;20077;-66
2023/12/04 00:18:00;;;;;;;20.20;13.93;;;;;;;-0.39;65.84;100848.28;4127546;28;20042;-66
2023/12/04 00:20:04;;;;;;;20.08;12.75;;;;;;;-0.39;66.05;100852.50;4128650;28;20042;-66
2023/12/04 00:22:09;;;;;;;20.17;13.13;;;;;;;-0.32;65.71;100848.66;4124587;28;20397;-67
2023/12/04 00:24:12;;;;;;;18.23;12.02;;;;;;;-0.36;66.02;100850.16;4126379;28;20045;-66
2023/12/04 00:26:15;;;;;;;19.00;11.95;;;;;;;-0.37;65.96;100853.50;4129168;28;20402;-66
2023/12/04 00:28:18;;;;;;;18.17;11.32;;;;;;;-0.33;66.35;100849.47;4122651;28;20489;-66
2023/12/04 00:30:21;;;;;;;17.63;12.65;;;;;;;-0.21;65.70;100852.81;4126104;28;20121;-66
2023/12/04 00:32:24;;;;;;;19.23;12.70;;;;;;;-0.32;66.53;100853.78;4127966;28;20046;-66
2023/12/04 00:34:27;;;;;;;18.45;12.43;;;;;;;-0.37;66.23;100846.69;4126788;28;20073;-66
2023/12/04 00:36:30;;;;;;;18.88;12.77;;;;;;;-0.36;66.49;100843.38;4129025;28;20062;-65
2023/12/04 00:38:34;;;;;;;18.35;12.50;;;;;;;-0.38;66.65;100839.84;4128200;28;20041;-65
2023/12/04 00:40:37;;;;;;;16.90;12.00;;;;;;;-0.36;66.64;100838.25;4126463;28;20074;-65
2023/12/04 00:42:40;;;;;;;17.80;11.77;;;;;;;-0.35;65.70;100839.16;4129230;28;20030;-66
2023/12/04 00:44:43;;;;;;;17.50;11.35;;;;;;;-0.39;66.00;100840.63;4128699;28;20393;-66
2023/12/04 00:46:45;;;;;;;20.38;11.57;;;;;;;-0.42;66.72;100842.97;4128753;28;20514;-65
2023/12/04 00:48:48;;;;;;;19.35;12.73;;;;;;;-0.42;66.20;100837.00;4125560;28;20061;-65
2023/12/04 00:50:52;;;;;;;17.65;12.60;;;;;;;-0.42;66.00;100832.75;4121641;28;20096;-65
2023/12/04 00:52:55;;;;;;;19.08;12.35;;;;;;;-0.26;65.63;100831.19;4124601;28;20062;-65
2023/12/04 00:54:59;;;;;;;19.10;11.30;;;;;;;-0.39;65.92;100826.97;4129317;28;20592;-65
2023/12/04 00:57:03;;;;;;;18.13;11.43;;;;;;;-0.41;65.30;100821.78;4129886;28;20046;-65
2023/12/04 00:59:06;;;;;;;17.27;12.00;;;;;;;-0.43;65.26;100819.91;4127070;28;20046;-66
2023/12/04 01:01:09;;;;;;;20.50;12.85;;;;;;;-0.47;65.15;100816.25;4128404;28;20046;-65
2023/12/04 01:03:11;;;;;;;18.52;12.30;;;;;;;-0.51;64.95;100811.75;4126320;28;20045;-65
2023/12/04 01:05:14;;;;;;;16.52;10.77;;;;;;;-0.52;65.22;100816.75;4127856;28;20109;-65
2023/12/04 01:07:17;;;;;;;18.65;12.02;;;;;;;-0.63;65.92;100811.81;4128138;28;20048;-66
2023/12/04 01:09:24;;;;;;;18.67;11.65;;;;;;;-0.60;65.33;100806.94;4126564;28;20495;-66
2023/12/04 01:11:28;;;;;;;18.23;11.38;;;;;;;-0.60;65.95;100806.03;4125960;28;20743;-66
2023/12/04 01:13:31;;;;;;;18.98;11.38;;;;;;;-0.61;64.86;100800.06;4126294;28;20507;-66
2023/12/04 01:15:34;;;;;;;20.10;12.90;;;;;;;-0.60;65.05;100799.28;4125823;28;20045;-66
2023/12/04 01:17:37;;;;;;;18.60;13.10;;;;;;;-0.57;65.41;100803.66;4121635;28;20031;-65
2023/12/04 01:19:40;;;;;;;16.48;11.82;;;;;;;-0.59;65.60;100795.03;4123334;28;20042;-65
2023/12/04 01:21:43;;;;;;;18.83;11.77;;;;;;;-0.60;65.49;100795.81;4128846;28;20065;-65
2023/12/04 01:23:46;;;;;;;18.23;12.60;;;;;;;-0.61;64.97;100794.94;4124710;28;20046;-65
2023/12/04 01:25:49;;;;;;;15.15;10.40;;;;;;;-0.60;65.27;100790.72;4125344;28;20133;-66
2023/12/04 01:27:53;;;;;;;20.02;11.63;;;;;;;-0.56;64.81;100787.56;4127411;28;20832;-66
2023/12/04 01:29:56;;;;;;;18.77;12.02;;;;;;;-0.57;66.04;100788.34;4127167;28;20038;-66
2023/12/04 01:31:59;;;;;;;20.15;12.32;;;;;;;-0.54;65.01;100789.44;4129374;28;20069;-66
2023/12/04 01:34:02;;;;;;;19.95;11.80;;;;;;;-0.54;65.51;100788.53;4119358;28;20039;-66
2023/12/04 01:36:06;;;;;;;18.85;11.85;;;;;;;-0.46;65.71;100778.84;4124746;28;20057;-66
2023/12/04 01:38:09;;;;;;;17.92;10.93;;;;;;;-0.46;65.84;100789.94;4141447;28;20045;-65
2023/12/04 01:41:21;;;;;;;22.02;12.55;;;;;;;-0.49;64.64;100792.28;4129617;28;20050;-65
2023/12/04 01:43:25;;;;;;;17.55;11.60;;;;;;;-0.57;65.24;100789.25;4125245;28;20125;-65
2023/12/04 01:45:29;;;;;;;;;;;;;;;-0.65;65.92;100794.66;4140958;28;20368;-65
2023/12/04 01:47:32;;;;;;;17.33;11.05;;;;;;;-0.61;64.98;100786.41;4123381;28;19928;-66
2023/12/04 01:49:36;;;;;;;17.42;10.63;;;;;;;-0.64;65.17;100788.75;4121880;28;20509;-65
2023/12/04 01:51:39;;;;;;;18.23;12.05;;;;;;;-0.61;65.01;100787.28;4122061;28;20039;-66
2023/12/04 01:53:43;;;;;;;18.92;12.02;;;;;;;-0.48;65.27;100780.41;4126744;28;20035;-66
2023/12/04 01:55:47;;;;;;;17.15;11.48;;;;;;;-0.55;64.77;100777.44;4124087;28;20146;-65
2023/12/04 01:57:50;;;;;;;17.45;11.63;;;;;;;-0.56;64.38;100772.25;4126451;28;20038;-65
2023/12/04 01:59:54;;;;;;;16.80;11.13;;;;;;;-0.54;64.70;100766.47;4122416;28;20070;-66
2023/12/04 02:01:57;;;;;;;17.05;11.70;;;;;;;-0.50;64.15;100771.75;4125754;28;20041;-65
2023/12/04 02:04:01;;;;;;;15.82;11.32;;;;;;;-0.47;64.77;100761.75;4123843;28;20038;-65
2023/12/04 02:06:06;;;;;;;18.63;11.63;;;;;;;-0.50;63.94;100766.66;4129167;28;20038;-66
2023/12/04 02:08:09;;;;;;;16.08;10.45;;;;;;;-0.51;63.71;100762.31;4128460;28;20073;-66
2023/12/04 02:10:11;;;;;;;18.88;11.73;;;;;;;-0.53;64.55;100759.69;4122810;28;20060;-65
2023/12/04 02:12:34;;;;;;;16.80;10.25;;;;;;;-0.56;64.75;100755.25;4128349;28;20049;-66
2023/12/04 02:14:36;;;;;;;17.17;10.98;;;;;;;-0.52;64.58;100752.91;4127435;28;20035;-66
2023/12/04 02:16:43;;;;;;;19.48;11.57;;;;;;;-0.53;63.98;100754.56;4126973;28;20133;-66
2023/12/04 02:18:46;;;;;;;18.33;11.80;;;;;;;-0.56;65.07;100750.16;4121949;28;20046;-66
2023/12/04 02:20:49;;;;;;;18.35;11.35;;;;;;;-0.53;64.47;100741.81;4130695;28;20070;-65
2023/12/04 02:22:51;;;;;;;16.33;11.25;;;;;;;-0.55;64.48;100738.28;4125085;28;20049;-66
2023/12/04 02:24:58;;;;;;;17.35;11.40;;;;;;;-0.59;64.87;100747.41;4126280;28;20092;-66
2023/12/04 02:27:11;;;;;;;17.20;10.90;;;;;;;-0.59;65.45;100746.53;4126697;28;20046;-65
2023/12/04 02:29:20;;;;;;;19.73;12.10;;;;;;;-0.58;64.51;100744.06;4128548;28;20076;-66
2023/12/04 02:31:25;;;;;;;18.40;11.88;;;;;;;-0.57;65.45;100739.84;4122335;28;20049;-65
2023/12/04 02:33:30;;;;;;;16.10;10.50;;;;;;;-0.56;64.82;100732.28;4121447;28;20564;-65
2023/12/04 02:35:35;;;;;;;17.95;11.27;;;;;;;-0.54;64.87;100732.34;4127249;28;20042;-65
2023/12/04 02:37:38;;;;;;;18.00;11.77;;;;;;;-0.54;65.40;100722.16;4122387;28;20042;-65
2023/12/04 02:39:41;;;;;;;20.85;13.02;;;;;;;-0.52;64.51;100722.28;4125384;28;20050;-66
2023/12/04 02:41:46;;;;;;;18.45;10.75;;;;;;;-0.47;63.95;100716.63;4126568;28;20038;-65
2023/12/04 02:43:49;;;;;;;17.70;11.25;;;;;;;-0.50;64.57;100713.91;4127240;28;20042;-65
2023/12/04 02:45:50;;;;;;;19.38;11.32;;;;;;;-0.53;63.86;100716.25;4124687;28;20527;-66
2023/12/04 02:47:53;;;;;;;18.27;11.50;;;;;;;-0.55;63.96;100708.50;4128842;28;20552;-65
2023/12/04 02:50:27;;;;;;;17.05;11.32;;;;;;;-0.56;63.88;100711.84;4129442;28;20057;-65
2023/12/04 02:52:29;;;;;;;16.92;10.95;;;;;;;-0.58;64.00;100707.44;4130091;28;20062;-65
2023/12/04 02:54:32;;;;;;;17.20;11.10;;;;;;;-0.57;63.96;100698.97;4130101;28;20396;-65
2023/12/04 02:56:35;;;;;;;18.90;11.85;;;;;;;-0.52;64.14;100700.16;4130747;28;20034;-65
2023/12/04 02:58:40;;;;;;;16.38;11.02;;;;;;;-0.53;64.18;100695.84;4130644;28;20047;-65
2023/12/04 03:00:43;;;;;;;18.20;11.20;;;;;;;-0.57;63.58;100689.66;4125450;28;20047;-65
2023/12/04 03:02:46;;;;;;;17.75;11.07;;;;;;;-0.53;63.67;100677.97;4128039;28;20054;-65
2023/12/04 03:04:47;;;;;;;17.90;12.00;;;;;;;-0.58;63.27;100676.81;4131544;28;20042;-65
2023/12/04 03:06:50;;;;;;;16.17;10.13;;;;;;;-0.54;63.74;100669.44;4129841;28;20080;-65
2023/12/04 03:08:53;;;;;;;17.30;10.70;;;;;;;-0.51;63.81;100676.41;4130246;28;20497;-65
2023/12/04 03:10:55;;;;;;;15.10;9.93;;;;;;;-0.47;64.27;100670.66;4130383;28;20480;-65
2023/12/04 03:12:58;;;;;;;21.75;12.07;;;;;;;-0.47;64.46;100667.25;4126154;28;20038;-64
2023/12/04 03:15:04;;;;;;;16.50;10.38;;;;;;;-0.48;64.36;100658.72;4129814;28;20433;-66
2023/12/04 03:17:07;;;;;;;15.48;10.43;;;;;;;-0.46;64.65;100658.81;4121486;28;20409;-65
2023/12/04 03:19:10;;;;;;;17.92;10.27;;;;;;;-0.41;64.28;100655.75;4128710;28;20093;-65
2023/12/04 03:21:13;;;;;;;18.30;11.18;;;;;;;-0.40;63.46;100656.63;4127095;28;20038;-65
2023/12/04 03:23:16;;;;;;;15.20;9.75;;;;;;;-0.40;64.20;100652.38;4127576;28;20528;-65
2023/12/04 03:25:19;;;;;;;15.52;10.43;;;;;;;-0.38;63.43;100650.81;4124027;28;20062;-65
2023/12/04 03:27:21;;;;;;;17.00;10.82;;;;;;;-0.36;63.24;100651.78;4130748;28;20529;-64
2023/12/04 03:29:24;;;;;;;16.02;11.30;;;;;;;-0.41;63.67;100654.84;4105439;28;20085;-65
2023/12/04 03:31:30;;;;;;;17.70;11.25;;;;;;;-0.41;63.68;100645.53;4124415;28;20043;-65
2023/12/04 03:33:33;;;;;;;15.38;9.80;;;;;;;-0.40;63.17;100651.50;4128124;28;20034;-64
2023/12/04 03:35:35;;;;;;;14.25;9.43;;;;;;;-0.40;63.62;100641.28;4129404;28;20409;-64
2023/12/04 03:37:38;;;;;;;15.15;9.65;;;;;;;-0.38;63.18;100635.50;4130130;28;20042;-65
2023/12/04 03:39:41;;;;;;;16.92;10.27;;;;;;;-0.39;63.13;100631.16;4124891;28;20516;-65
2023/12/04 03:41:44;;;;;;;17.08;10.60;;;;;;;-0.36;63.14;100618.59;4128498;28;20401;-65
2023/12/04 03:43:47;;;;;;;16.05;10.63;;;;;;;-0.40;63.39;100610.66;4128009;28;20039;-65
2023/12/04 03:45:50;;;;;;;17.05;11.77;;;;;;;-0.43;64.06;100616.44;4128287;28;20046;-65
2023/12/04 03:47:54;;;;;;;18.77;11.95;;;;;;;-0.45;62.84;100604.38;4130291;28;20070;-66
2023/12/04 03:50:46;;;;;;;15.98;11.05;;;;;;;-0.50;63.66;100598.97;4128988;28;20057;-66
2023/12/04 03:52:49;;;;;;;18.30;10.75;;;;;;;-0.56;63.37;100589.28;4129163;28;20126;-67
2023/12/04 03:54:52;;;;;;;13.95;10.07;;;;;;;-0.56;63.69;100601.16;4131133;28;20106;-67
2023/12/04 03:56:55;;;;;;;15.10;10.38;;;;;;;-0.54;64.25;100607.25;4131145;28;20042;-67
2023/12/04 03:58:58;;;;;;;15.55;8.82;;;;;;;-0.50;64.51;100609.19;4129685;28;20408;-67
2023/12/04 04:01:01;;;;;;;15.68;9.77;;;;;;;-0.49;63.81;100600.75;4130378;28;20125;-67
2023/12/04 04:03:06;;;;;;;14.70;9.35;;;;;;;-0.48;63.67;100597.44;4126048;28;20501;-66
2023/12/04 04:05:08;;;;;;;;;;;;;;;-0.51;63.56;100604.91;4124525;28;22370;-67
2023/12/04 04:07:11;;;;;;;14.85;9.73;;;;;;;-0.45;63.78;100597.59;4119383;28;20376;-66
2023/12/04 04:09:14;;;;;;;14.93;8.93;;;;;;;-0.43;63.22;100601.13;4126729;28;20121;-66
2023/12/04 04:11:17;;;;;;;14.65;9.60;;;;;;;-0.40;64.03;100605.53;4127556;28;20042;-66
2023/12/04 04:13:19;;;;;;;15.65;10.82;;;;;;;-0.40;64.34;100605.53;4129272;28;20034;-66
2023/12/04 04:15:21;;;;;;;14.63;9.45;;;;;;;-0.40;64.45;100605.53;4126872;28;20035;-66
2023/12/04 04:17:25;;;;;;;16.48;10.27;;;;;;;-0.42;63.62;100602.91;4125516;28;20089;-66
2023/12/04 04:22:48;;;;;;;15.13;9.90;;;;;;;-0.47;64.31;100603.41;4129649;28;20447;-66
2023/12/04 04:24:50;;;;;;;;;;;;;;;-0.53;63.71;100603.91;4122526;28;20038;-66
2023/12/04 04:26:53;;;;;;;17.13;10.52;;;;;;;-0.50;63.72;100600.66;4125759;28;19941;-66
2023/12/04 04:28:56;;;;;;;14.45;9.63;;;;;;;-0.43;64.03;100600.25;4125458;28;20034;-66
2023/12/04 04:30:59;;;;;;;16.45;11.13;;;;;;;-0.40;63.29;100608.97;4126777;28;20074;-66
2023/12/04 04:33:04;;;;;;;16.15;10.90;;;;;;;-0.39;63.88;100603.06;4123706;28;20130;-67
2023/12/04 04:35:08;;;;;;;15.82;10.05;;;;;;;-0.36;63.06;100605.81;4129189;28;20116;-66
2023/12/04 04:37:11;;;;;;;15.43;9.80;;;;;;;-0.33;63.04;100602.56;4125514;28;20065;-66
2023/12/04 04:39:15;;;;;;;16.27;9.68;;;;;;;-0.31;62.62;100606.09;4128121;28;20525;-66
2023/12/04 04:41:18;;;;;;;15.07;9.52;;;;;;;-0.35;62.38;100609.28;4127147;28;20117;-66
2023/12/04 04:43:20;;;;;;;15.43;9.82;;;;;;;-0.31;62.44;100607.75;4128115;28;20038;-66
2023/12/04 04:45:23;;;;;;;14.15;9.98;;;;;;;-0.34;62.33;100613.56;4124595;28;20038;-65
2023/12/04 04:47:27;;;;;;;17.25;11.10;;;;;;;-0.42;62.39;100608.00;4124675;28;20038;-66
2023/12/04 04:49:30;;;;;;;14.93;9.75;;;;;;;-0.31;62.36;100603.53;4124380;28;20493;-65
2023/12/04 04:51:34;;;;;;;17.67;11.23;;;;;;;-0.34;63.20;100595.69;4125356;28;20061;-65
2023/12/04 04:53:37;;;;;;;20.15;11.70;;;;;;;-0.33;62.80;100586.38;4122762;28;20382;-65
2023/12/04 04:55:42;;;;;;;16.38;10.35;;;;;;;-0.40;62.95;100590.22;4124798;28;20109;-65
2023/12/04 04:57:51;;;;;;;18.35;11.90;;;;;;;-0.39;62.76;100592.88;4128715;28;20049;-65
2023/12/04 04:59:53;;;;;;;17.60;11.70;;;;;;;-0.43;63.66;100575.59;4124941;28;20504;-66
2023/12/04 05:01:56;;;;;;;18.02;10.73;;;;;;;-0.44;63.42;100581.50;4125022;28;20070;-66
2023/12/04 05:03:58;;;;;;;16.90;11.35;;;;;;;-0.45;63.06;100574.63;4123655;28;20564;-66
2023/12/04 05:06:01;;;;;;;19.77;12.35;;;;;;;-0.47;63.38;100568.53;4107817;28;20129;-66
2023/12/04 05:08:05;;;;;;;18.05;12.15;;;;;;;-0.42;63.81;100568.81;4128339;28;20042;-66
2023/12/04 05:10:47;;;;;;;18.70;11.90;;;;;;;-0.44;64.08;100568.72;4127109;28;20035;-65
2023/12/04 05:12:50;;;;;;;19.45;12.27;;;;;;;-0.46;64.20;100572.84;4123747;28;20542;-66
2023/12/04 05:14:56;;;;;;;20.35;13.00;;;;;;;-0.46;64.10;100570.28;4124159;28;20039;-65
2023/12/04 05:16:59;;;;;;;22.45;14.20;;;;;;;-0.51;64.28;100570.81;4123491;28;20101;-66
2023/12/04 05:19:02;;;;;;;22.75;14.35;;;;;;;-0.54;64.56;100568.94;4120379;28;20051;-66
2023/12/04 05:21:08;;;;;;;21.60;14.10;;;;;;;-0.54;64.74;100563.84;4121540;28;20052;-65
2023/12/04 05:23:12;;;;;;;20.33;13.55;;;;;;;-0.58;64.93;100567.00;4121406;28;20122;-65
2023/12/04 05:25:39;;;;;;;20.83;13.98;;;;;;;-0.62;64.26;100567.63;4128292;28;20449;-66
2023/12/04 05:27:53;;;;;;;21.83;12.93;;;;;;;-0.70;64.58;100572.25;4120606;28;20045;-65
2023/12/04 05:29:56;;;;;;;20.35;12.82;;;;;;;-0.73;64.91;100575.50;4126418;28;20038;-65
2023/12/04 05:31:59;;;;;;;22.08;13.90;;;;;;;-0.79;65.07;100567.47;4128676;28;20489;-65
2023/12/04 05:34:03;;;;;;;20.63;13.10;;;;;;;-0.80;65.09;100568.25;4124913;28;20045;-65
2023/12/04 05:36:06;;;;;;;22.60;14.43;;;;;;;-0.84;64.93;100573.94;4127893;28;20126;-66
2023/12/04 05:38:09;;;;;;;28.83;14.75;;;;;;;-0.92;66.23;100577.69;4121127;28;20298;-65
2023/12/04 05:40:12;;;;;;;22.63;13.65;;;;;;;-0.88;65.96;100582.19;4127095;28;20138;-65
2023/12/04 05:42:16;;;;;;;22.35;13.40;;;;;;;-0.81;66.11;100583.47;4120614;28;20042;-66
2023/12/04 05:44:20;;;;;;;20.95;13.50;;;;;;;-0.82;65.33;100580.03;4124388;28;20465;-65
2023/12/04 05:46:23;;;;;;;20.23;12.65;;;;;;;-0.98;65.56;100587.50;4127959;28;20038;-65
2023/12/04 05:48:26;;;;;;;17.48;11.65;;;;;;;-0.99;64.62;100584.09;4123157;28;20042;-65
2023/12/04 05:50:29;;;;;;;17.33;12.05;;;;;;;-0.81;64.28;100570.72;4124048;28;20117;-65
2023/12/04 05:52:34;;;;;;;18.85;10.68;;;;;;;-0.78;64.71;100574.31;4126282;28;20038;-65
2023/12/04 05:54:37;;;;;;;18.50;11.75;;;;;;;-0.73;64.46;100564.38;4124766;28;20039;-66
2023/12/04 05:56:40;;;;;;;20.08;12.57;;;;;;;-0.73;64.17;100559.28;4121851;28;20045;-65
2023/12/04 05:58:43;;;;;;;21.40;12.43;;;;;;;-0.71;64.86;100561.16;4124612;28;20124;-65
2023/12/04 06:00:52;;;;;;;19.45;12.18;;;;;;;-0.71;64.62;100556.03;4122112;28;20409;-66
2023/12/04 06:02:55;;;;;;;18.08;11.65;;;;;;;-0.67;64.04;100558.78;4123201;28;20042;-65
2023/12/04 06:04:58;;;;;;;17.15;11.45;;;;;;;-0.60;64.10;100549.06;4125866;28;20034;-65
2023/12/04 06:07:01;;;;;;;16.67;10.63;;;;;;;-0.67;64.34;100551.13;4125600;28;20046;-65
2023/12/04 06:09:04;;;;;;;16.80;11.32;;;;;;;-0.64;64.80;100557.31;4118762;28;20489;-65
2023/12/04 06:11:08;;;;;;;16.55;10.27;;;;;;;-0.65;64.76;100554.66;4126506;28;20115;-66
2023/12/04 06:13:10;;;;;;;14.18;9.35;;;;;;;-0.62;64.61;100554.84;4127230;28;20461;-66
2023/12/04 06:15:13;;;;;;;15.82;10.20;;;;;;;-0.58;65.27;100544.03;4116475;28;20543;-66
2023/12/04 06:17:18;;;;;;;14.25;9.60;;;;;;;-0.66;64.95;100542.69;4125438;28;20134;-66
2023/12/04 06:19:20;;;;;;;14.15;9.35;;;;;;;-0.64;64.83;100547.09;4121904;28;20062;-66
2023/12/04 06:21:24;;;;;;;15.23;9.38;;;;;;;-0.59;65.25;100540.56;4129917;28;20133;-66
2023/12/04 06:23:27;;;;;;;15.68;9.63;;;;;;;-0.57;65.17;100525.34;4131877;28;20492;-66
2023/12/04 06:25:30;;;;;;;15.75;10.27;;;;;;;-0.64;64.55;100519.00;4132358;28;20439;-66
2023/12/04 06:27:34;;;;;;;15.63;9.65;;;;;;;-0.71;64.34;100533.06;4133603;28;20070;-66
2023/12/04 06:29:37;;;;;;;16.38;9.40;;;;;;;-0.64;64.57;100531.78;4124405;28;20122;-66
2023/12/04 06:31:41;;;;;;;15.55;10.10;;;;;;;-0.54;63.86;100521.31;4123023;28;20045;-65
2023/12/04 06:33:46;;;;;;;15.13;9.40;;;;;;;-0.52;64.42;100518.00;4128058;28;20058;-65
2023/12/04 06:35:49;;;;;;;19.10;10.57;;;;;;;-0.54;63.45;100521.31;4127401;28;20039;-65
2023/12/04 06:37:54;;;;;;;16.58;9.80;;;;;;;-0.49;63.61;100507.94;4126162;28;20038;-65
2023/12/04 06:40:00;;;;;;;;;;;;;;;-0.60;64.66;100498.00;4131764;28;20066;-65
2023/12/04 06:42:04;;;;;;;16.58;9.15;;;;;;;-0.57;64.19;100495.63;4128479;28;19925;-65
2023/12/04 06:44:08;;;;;;;15.68;9.95;;;;;;;-0.50;64.19;100490.84;4126152;28;20049;-65
2023/12/04 06:46:15;;;;;;;15.85;9.13;;;;;;;-0.55;64.00;100482.94;4125300;28;20031;-64
2023/12/04 06:48:18;;;;;;;17.38;10.05;;;;;;;-0.54;63.71;100484.66;4129826;28;20040;-66
2023/12/04 06:50:22;;;;;;;14.77;10.10;;;;;;;-0.55;64.54;100476.16;4124500;28;20400;-66
2023/12/04 06:52:25;;;;;;;16.45;10.57;;;;;;;-0.64;64.19;100467.06;4126960;28;20077;-65
2023/12/04 06:54:28;;;;;;;18.33;11.00;;;;;;;-0.59;64.05;100465.66;4128296;28;20757;-65
2023/12/04 06:56:31;;;;;;;15.32;9.73;;;;;;;-0.52;63.39;100464.38;4107486;28;20121;-65
2023/12/04 06:58:34;;;;;;;21.17;10.30;;;;;;;-0.56;63.21;100471.81;4126916;28;20580;-65
2023/12/04 07:00:37;;;;;;;17.52;11.20;;;;;;;-0.56;62.71;100464.16;4125177;28;20073;-66
2023/12/04 07:02:40;;;;;;;14.98;10.35;;;;;;;-0.55;63.28;100467.63;4123681;28;20130;-65
2023/12/04 07:04:43;;;;;;;17.90;11.20;;;;;;;-0.50;63.63;100460.22;4123677;28;20031;-65
2023/12/04 07:06:48;;;;;;;17.25;10.52;;;;;;;-0.44;63.25;100456.38;4124413;28;20136;-65
2023/12/04 07:08:51;;;;;;;15.75;9.32;;;;;;;-0.31;62.52;100451.94;4127301;28;20039;-65
2023/12/04 07:10:54;;;;;;;18.48;10.73;;;;;;;-0.36;61.35;100455.13;4127248;28;20039;-65
2023/12/04 07:12:57;;;;;;;18.67;11.30;;;;;;;-0.33;61.80;100449.31;4126138;28;20496;-65
2023/12/04 07:14:59;;;;;;;16.13;10.77;;;;;;;-0.39;62.20;100452.38;4127382;28;20034;-65
2023/12/04 07:17:02;;;;;;;16.23;10.43;;;;;;;-0.50;62.32;100450.00;4124366;28;20069;-65
2023/12/04 07:19:05;;;;;;;17.10;10.88;;;;;;;-0.64;62.73;100451.72;4124884;28;20047;-65
2023/12/04 07:21:09;;;;;;;14.88;10.07;;;;;;;-0.59;62.47;100443.56;4125416;28;20484;-65
2023/12/04 07:23:14;;;;;;;20.05;11.82;;;;;;;-0.50;62.17;100437.25;4130194;28;20100;-65
2023/12/04 07:25:17;;;;;;;20.05;11.25;;;;;;;-0.47;63.13;100438.28;4130383;28;20122;-65
2023/12/04 07:27:20;;;;;;;21.70;14.30;;;;;;;-0.49;62.44;100439.00;4126065;28;20065;-65
2023/12/04 07:29:23;;;;;;;22.00;12.82;;;;;;;-0.51;62.67;100441.47;4127119;28;20049;-65
2023/12/04 07:31:26;;;;;;;20.55;13.77;;;;;;;-0.53;63.39;100440.47;4125010;28;20152;-66
2023/12/04 07:33:29;;;;;;;20.42;13.90;;;;;;;-0.46;63.39;100436.63;4126176;28;20038;-65
2023/12/04 07:35:33;;;;;;;23.90;13.98;;;;;;;-0.50;63.90;100442.34;4130580;28;20082;-66
2023/12/04 07:37:35;;;;;;;20.10;12.98;;;;;;;-0.51;63.39;100446.59;4130148;28;20046;-66
2023/12/04 07:39:40;;;;;;;19.50;12.88;;;;;;;-0.49;64.51;100447.53;4128595;28;20038;-65
2023/12/04 07:41:42;;;;;;;21.15;13.27;;;;;;;-0.51;63.76;100454.25;4130142;28;20113;-65
2023/12/04 07:43:44;;;;;;;20.13;12.48;;;;;;;-0.50;63.88;100440.66;4130364;28;20040;-64
2023/12/04 07:45:47;;;;;;;18.15;12.48;;;;;;;-0.48;65.06;100443.31;4124298;28;20046;-64
2023/12/04 07:47:51;;;;;;;18.30;12.25;;;;;;;-0.42;64.19;100446.22;4130029;28;20117;-64
2023/12/04 07:49:54;;;;;;;17.40;11.85;;;;;;;-0.28;64.45;100445.31;4125214;28;20034;-64
2023/12/04 07:51:57;;;;;;;19.52;12.52;;;;;;;-0.32;63.90;100445.06;4124837;28;20519;-65
2023/12/04 07:54:01;;;;;;;23.55;12.13;;;;;;;-0.20;63.16;100446.66;4124890;28;20446;-65
2023/12/04 07:56:08;;;;;;;17.15;11.93;;;;;;;-0.22;63.23;100442.25;4121701;28;20034;-65
2023/12/04 07:58:11;;;;;;;17.02;11.43;;;;;;;-0.28;62.97;100441.91;4126775;28;20097;-65
2023/12/04 08:00:17;;;;;;;20.38;13.05;;;;;;;-0.33;63.30;100446.75;4122782;28;20408;-65
2023/12/04 08:02:20;;;;;;;17.65;11.63;;;;;;;-0.27;62.70;100436.88;4126267;28;20042;-65
2023/12/04 08:04:23;;;;;;;17.58;11.27;;;;;;;-0.23;63.27;100438.81;4127413;28;20125;-65
2023/12/04 08:06:26;;;;;;;16.20;10.20;;;;;;;-0.19;63.21;100434.75;4128355;28;20034;-64
2023/12/04 08:08:29;;;;;;;18.52;11.35;;;;;;;-0.06;62.17;100418.44;4122239;28;20038;-64
2023/12/04 08:10:31;;;;;;;18.80;10.88;;;;;;;0.00;61.67;100413.72;4127167;28;20041;-64
2023/12/04 08:12:36;;;;;;;16.42;9.95;;;;;;;-0.05;61.90;100404.88;4127516;28;20038;-64
2023/12/04 08:14:39;;;;;;;16.73;9.90;;;;;;;-0.04;62.16;100407.53;4121534;28;20046;-64
2023/12/04 08:16:42;;;;;;;15.70;10.38;;;;;;;0.05;61.63;100411.41;4121691;28;20034;-65
2023/12/04 08:18:45;;;;;;;19.30;9.77;;;;;;;0.09;62.46;100408.19;4123975;28;20125;-64
2023/12/04 08:20:48;;;;;;;15.50;10.23;;;;;;;0.09;62.07;100396.31;4126240;28;20053;-65
2023/12/04 08:22:51;;;;;;;15.02;8.82;;;;;;;0.16;61.44;100394.97;4127949;28;20037;-65
2023/12/04 08:24:54;;;;;;;16.67;9.63;;;;;;;0.21;61.18;100390.13;4127626;28;20097;-64
2023/12/04 08:26:57;;;;;;;14.38;8.85;;;;;;;0.22;61.24;100389.31;4128978;28;20436;-65
2023/12/04 08:29:02;;;;;;;14.00;9.10;;;;;;;0.22;61.83;100389.31;4123823;28;20050;-65
2023/12/04 08:31:04;;;;;;;;;;;;;;;0.17;61.78;100396.72;4127015;28;20045;-64
2023/12/04 08:33:07;;;;;;;13.15;8.68;;;;;;;0.15;62.04;100388.97;4131617;28;19926;-65
2023/12/04 08:35:10;;;;;;;13.02;8.45;;;;;;;0.20;62.03;100385.78;4125178;28;20039;-64
2023/12/04 08:37:13;;;;;;;16.15;8.98;;;;;;;0.22;61.83;100387.66;4118859;28;20039;-65
2023/12/04 08:39:16;;;;;;;12.45;8.20;;;;;;;0.11;61.64;100391.28;4127790;28;20050;-65
2023/12/04 08:41:19;;;;;;;12.13;7.28;;;;;;;0.07;60.94;100386.78;4125857;28;20088;-65
2023/12/04 08:43:21;;;;;;;12.18;7.65;;;;;;;0.16;61.29;100393.31;4123003;28;20096;-65
2023/12/04 08:45:25;;;;;;;12.07;7.90;;;;;;;0.32;61.66;100386.44;4128071;28;20042;-65
2023/12/04 08:47:28;;;;;;;12.20;7.53;;;;;;;0.43;60.47;100376.81;4128825;28;20468;-65
2023/12/04 08:49:32;;;;;;;12.15;7.82;;;;;;;0.42;61.11;100382.72;4126861;28;20035;-65
2023/12/04 08:51:45;;;;;;;12.73;7.43;;;;;;;0.44;60.79;100382.00;4122312;28;20042;-65
2023/12/04 08:53:48;;;;;;;11.00;7.38;;;;;;;0.52;61.16;100370.50;4123914;28;20046;-65
2023/12/04 08:55:52;;;;;;;14.60;8.50;;;;;;;0.61;60.61;100374.34;4125279;28;21137;-65
2023/12/04 08:57:55;;;;;;;12.02;7.60;;;;;;;0.59;60.69;100384.50;4126818;28;20038;-65
2023/12/04 09:00:49;;;;;;;11.02;7.07;;;;;;;0.73;60.63;100374.09;4124439;28;20042;-65
2023/12/04 09:02:54;;;;;;;13.07;7.53;;;;;;;0.69;60.19;100375.63;4125447;28;20043;-65
2023/12/04 09:05:10;;;;;;;10.40;6.40;;;;;;;0.66;59.84;100373.78;4124518;28;20035;-65
2023/12/04 09:07:14;;;;;;;11.73;6.90;;;;;;;0.63;59.08;100371.06;4128361;28;20031;-65
2023/12/04 09:09:20;;;;;;;10.60;7.20;;;;;;;0.54;59.22;100378.28;4122844;28;20046;-65
2023/12/04 09:11:25;;;;;;;11.52;6.72;;;;;;;0.60;59.91;100381.16;4123255;28;20054;-65
2023/12/04 09:13:29;;;;;;;10.60;6.53;;;;;;;0.65;59.81;100379.69;4120330;28;20486;-65
2023/12/04 09:15:31;;;;;;;10.70;6.45;;;;;;;0.64;59.38;100377.97;4125425;28;20034;-65
2023/12/04 09:17:35;;;;;;;10.00;6.07;;;;;;;0.79;59.17;100387.22;4122411;28;20039;-65
2023/12/04 09:19:43;;;;;;;11.45;7.07;;;;;;;0.82;59.69;100380.59;4124050;28;20133;-65
2023/12/04 09:21:46;;;;;;;9.60;5.85;;;;;;;0.82;59.39;100377.16;4124842;28;20559;-65
2023/12/04 09:23:49;;;;;;;10.52;6.88;;;;;;;0.68;58.84;100379.84;4127150;28;20389;-65
2023/12/04 09:25:53;;;;;;;11.65;7.40;;;;;;;0.75;58.99;100386.19;4124598;28;20130;-65
2023/12/04 09:27:55;;;;;;;13.10;7.75;;;;;;;0.75;59.23;100378.50;4119111;28;20046;-65
2023/12/04 09:29:58;;;;;;;10.52;6.88;;;;;;;0.81;59.15;100375.41;4122135;28;20493;-65
2023/12/04 09:32:01;;;;;;;11.60;7.22;;;;;;;0.91;59.42;100369.94;4123796;28;20634;-65
2023/12/04 09:34:04;;;;;;;9.45;5.72;;;;;;;0.87;59.57;100379.13;4112294;28;20043;-65